Schedule Details

Flight Number: CPX714
Departure: José María Córdova International Airport (SKRG) at 1430 UTC
Arrival: Miami International Airport (KMIA) at 1800 UTC
Route: BUTAL UQ105 KILER UG430 UCA UA301 URSUS FLIPR5


Current Weather Information
SKRG 152000Z 06004KT 9999 SCT020TCU BKN080 30/25 A2976 RMK TCU S/W
KMIA 151953Z 14009KT 10SM SCT032 BKN250 26/19 A2993 RMK AO2 SLP136 T02560189

Route Map